sensor_id;sensor_type;location;lat;lon;timestamp;P1;durP1;ratioP1;P2;durP2;ratioP2
27847;SDS011;15212;48.830;8.730;2023-03-01T00:01:45;29.77;;;14.38;;
27847;SDS011;15212;48.830;8.730;2023-03-01T00:04:14;33.85;;;14.40;;
27847;SDS011;15212;48.830;8.730;2023-03-01T00:06:42;31.87;;;15.63;;
27847;SDS011;15212;48.830;8.730;2023-03-01T00:09:17;31.45;;;14.30;;
27847;SDS011;15212;48.830;8.730;2023-03-01T00:11:43;28.83;;;14.00;;
27847;SDS011;15212;48.830;8.730;2023-03-01T00:14:11;39.90;;;14.70;;
27847;SDS011;15212;48.830;8.730;2023-03-01T00:16:42;29.80;;;14.45;;
27847;SDS011;15212;48.830;8.730;2023-03-01T00:19:12;27.55;;;13.85;;
27847;SDS011;15212;48.830;8.730;2023-03-01T00:21:43;35.45;;;15.70;;
27847;SDS011;15212;48.830;8.730;2023-03-01T00:24:12;31.70;;;15.05;;
27847;SDS011;15212;48.830;8.730;2023-03-01T00:26:40;32.95;;;15.35;;
27847;SDS011;15212;48.830;8.730;2023-03-01T00:29:08;28.10;;;15.15;;
27847;SDS011;15212;48.830;8.730;2023-03-01T00:31:37;33.38;;;14.58;;
27847;SDS011;15212;48.830;8.730;2023-03-01T00:34:05;32.45;;;15.43;;
27847;SDS011;15212;48.830;8.730;2023-03-01T00:36:34;34.35;;;15.38;;
27847;SDS011;15212;48.830;8.730;2023-03-01T00:39:04;28.00;;;14.40;;
27847;SDS011;15212;48.830;8.730;2023-03-01T00:41:36;30.12;;;15.03;;
27847;SDS011;15212;48.830;8.730;2023-03-01T00:44:05;31.70;;;15.13;;
27847;SDS011;15212;48.830;8.730;2023-03-01T00:46:34;32.23;;;14.83;;
27847;SDS011;15212;48.830;8.730;2023-03-01T00:49:02;34.53;;;15.40;;
27847;SDS011;15212;48.830;8.730;2023-03-01T00:51:31;34.08;;;15.72;;
27847;SDS011;15212;48.830;8.730;2023-03-01T00:54:00;34.53;;;14.98;;
27847;SDS011;15212;48.830;8.730;2023-03-01T00:56:30;35.90;;;15.70;;
27847;SDS011;15212;48.830;8.730;2023-03-01T00:58:58;34.63;;;15.48;;
27847;SDS011;15212;48.830;8.730;2023-03-01T01:01:28;32.58;;;15.65;;
27847;SDS011;15212;48.830;8.730;2023-03-01T01:04:02;34.23;;;15.93;;
27847;SDS011;15212;48.830;8.730;2023-03-01T01:06:38;33.60;;;15.80;;
27847;SDS011;15212;48.830;8.730;2023-03-01T01:09:08;33.00;;;15.48;;
27847;SDS011;15212;48.830;8.730;2023-03-01T01:11:50;38.02;;;15.98;;
27847;SDS011;15212;48.830;8.730;2023-03-01T01:14:17;35.15;;;16.57;;
27847;SDS011;15212;48.830;8.730;2023-03-01T01:16:46;33.20;;;16.05;;
27847;SDS011;15212;48.830;8.730;2023-03-01T01:19:15;32.42;;;15.32;;
27847;SDS011;15212;48.830;8.730;2023-03-01T01:21:43;36.33;;;15.90;;
27847;SDS011;15212;48.830;8.730;2023-03-01T01:24:14;31.73;;;16.25;;
27847;SDS011;15212;48.830;8.730;2023-03-01T01:26:42;35.03;;;15.93;;
27847;SDS011;15212;48.830;8.730;2023-03-01T01:29:12;33.65;;;16.35;;
27847;SDS011;15212;48.830;8.730;2023-03-01T01:31:41;33.30;;;15.40;;
27847;SDS011;15212;48.830;8.730;2023-03-01T01:34:18;34.20;;;14.87;;
27847;SDS011;15212;48.830;8.730;2023-03-01T01:36:49;33.83;;;16.15;;
27847;SDS011;15212;48.830;8.730;2023-03-01T01:39:22;31.42;;;15.13;;
27847;SDS011;15212;48.830;8.730;2023-03-01T01:41:50;36.20;;;14.98;;
27847;SDS011;15212;48.830;8.730;2023-03-01T01:44:23;31.65;;;15.53;;
27847;SDS011;15212;48.830;8.730;2023-03-01T01:46:55;25.70;;;12.05;;
27847;SDS011;15212;48.830;8.730;2023-03-01T01:49:41;33.00;;;15.30;;
27847;SDS011;15212;48.830;8.730;2023-03-01T01:52:24;37.63;;;15.93;;
27847;SDS011;15212;48.830;8.730;2023-03-01T01:54:57;39.38;;;17.02;;
27847;SDS011;15212;48.830;8.730;2023-03-01T01:57:41;37.30;;;16.60;;
27847;SDS011;15212;48.830;8.730;2023-03-01T02:00:19;38.38;;;15.05;;
27847;SDS011;15212;48.830;8.730;2023-03-01T02:02:56;37.33;;;16.23;;
27847;SDS011;15212;48.830;8.730;2023-03-01T02:05:39;36.45;;;16.05;;
27847;SDS011;15212;48.830;8.730;2023-03-01T02:08:18;39.18;;;16.55;;
27847;SDS011;15212;48.830;8.730;2023-03-01T02:10:47;36.60;;;18.42;;
27847;SDS011;15212;48.830;8.730;2023-03-01T02:13:17;33.30;;;16.05;;
27847;SDS011;15212;48.830;8.730;2023-03-01T02:15:46;36.75;;;16.52;;
27847;SDS011;15212;48.830;8.730;2023-03-01T02:18:16;39.40;;;17.85;;
27847;SDS011;15212;48.830;8.730;2023-03-01T02:20:58;36.88;;;16.65;;
27847;SDS011;15212;48.830;8.730;2023-03-01T02:23:33;51.60;;;17.70;;
27847;SDS011;15212;48.830;8.730;2023-03-01T02:26:05;39.55;;;17.80;;
27847;SDS011;15212;48.830;8.730;2023-03-01T02:28:45;43.98;;;17.62;;
27847;SDS011;15212;48.830;8.730;2023-03-01T02:31:14;37.60;;;16.50;;
27847;SDS011;15212;48.830;8.730;2023-03-01T02:34:05;35.95;;;15.98;;
27847;SDS011;15212;48.830;8.730;2023-03-01T02:36:49;35.90;;;16.80;;
27847;SDS011;15212;48.830;8.730;2023-03-01T02:39:20;40.60;;;16.93;;
27847;SDS011;15212;48.830;8.730;2023-03-01T02:41:56;54.30;;;20.30;;
27847;SDS011;15212;48.830;8.730;2023-03-01T02:44:26;40.30;;;17.92;;
27847;SDS011;15212;48.830;8.730;2023-03-01T02:46:55;43.35;;;18.00;;
27847;SDS011;15212;48.830;8.730;2023-03-01T02:49:26;37.53;;;16.60;;
27847;SDS011;15212;48.830;8.730;2023-03-01T02:52:04;38.75;;;17.35;;
27847;SDS011;15212;48.830;8.730;2023-03-01T02:57:25;43.28;;;17.40;;
27847;SDS011;15212;48.830;8.730;2023-03-01T02:59:57;38.98;;;17.48;;
27847;SDS011;15212;48.830;8.730;2023-03-01T03:02:30;42.30;;;18.17;;
27847;SDS011;15212;48.830;8.730;2023-03-01T03:05:03;36.50;;;16.80;;
27847;SDS011;15212;48.830;8.730;2023-03-01T03:07:41;42.88;;;17.50;;
27847;SDS011;15212;48.830;8.730;2023-03-01T03:10:13;43.25;;;18.57;;
27847;SDS011;15212;48.830;8.730;2023-03-01T03:12:49;44.20;;;18.05;;
27847;SDS011;15212;48.830;8.730;2023-03-01T03:15:26;37.25;;;17.70;;
27847;SDS011;15212;48.830;8.730;2023-03-01T03:17:56;41.40;;;18.02;;
27847;SDS011;15212;48.830;8.730;2023-03-01T03:20:26;40.63;;;18.10;;
27847;SDS011;15212;48.830;8.730;2023-03-01T03:22:56;39.85;;;18.42;;
27847;SDS011;15212;48.830;8.730;2023-03-01T03:25:26;40.03;;;18.40;;
27847;SDS011;15212;48.830;8.730;2023-03-01T03:27:56;42.88;;;17.87;;
27847;SDS011;15212;48.830;8.730;2023-03-01T03:30:26;43.02;;;18.90;;
27847;SDS011;15212;48.830;8.730;2023-03-01T03:32:57;42.35;;;18.92;;
27847;SDS011;15212;48.830;8.730;2023-03-01T03:35:28;40.85;;;17.75;;
27847;SDS011;15212;48.830;8.730;2023-03-01T03:38:00;45.80;;;20.15;;
27847;SDS011;15212;48.830;8.730;2023-03-01T03:40:37;42.30;;;18.32;;
27847;SDS011;15212;48.830;8.730;2023-03-01T03:43:12;40.98;;;17.98;;
27847;SDS011;15212;48.830;8.730;2023-03-01T03:45:40;48.17;;;19.77;;
27847;SDS011;15212;48.830;8.730;2023-03-01T03:48:10;43.55;;;19.48;;
27847;SDS011;15212;48.830;8.730;2023-03-01T03:50:39;43.35;;;19.90;;
27847;SDS011;15212;48.830;8.730;2023-03-01T03:53:09;41.73;;;18.40;;
27847;SDS011;15212;48.830;8.730;2023-03-01T03:55:38;40.80;;;18.62;;
27847;SDS011;15212;48.830;8.730;2023-03-01T03:58:08;40.40;;;18.07;;
27847;SDS011;15212;48.830;8.730;2023-03-01T04:00:39;42.60;;;18.98;;
27847;SDS011;15212;48.830;8.730;2023-03-01T04:03:10;41.13;;;17.92;;
27847;SDS011;15212;48.830;8.730;2023-03-01T04:05:41;45.43;;;20.20;;
27847;SDS011;15212;48.830;8.730;2023-03-01T04:08:10;41.55;;;19.57;;
27847;SDS011;15212;48.830;8.730;2023-03-01T04:10:45;38.80;;;17.98;;
27847;SDS011;15212;48.830;8.730;2023-03-01T04:13:12;42.95;;;18.85;;
27847;SDS011;15212;48.830;8.730;2023-03-01T04:15:46;41.45;;;18.87;;
27847;SDS011;15212;48.830;8.730;2023-03-01T04:18:17;46.28;;;19.45;;
27847;SDS011;15212;48.830;8.730;2023-03-01T04:20:47;43.60;;;19.82;;
27847;SDS011;15212;48.830;8.730;2023-03-01T04:23:18;39.65;;;19.48;;
27847;SDS011;15212;48.830;8.730;2023-03-01T04:25:49;44.73;;;19.05;;
27847;SDS011;15212;48.830;8.730;2023-03-01T04:28:21;42.45;;;20.17;;
27847;SDS011;15212;48.830;8.730;2023-03-01T04:31:06;46.08;;;19.15;;
27847;SDS011;15212;48.830;8.730;2023-03-01T04:33:44;42.67;;;19.25;;
27847;SDS011;15212;48.830;8.730;2023-03-01T04:36:19;47.40;;;20.62;;
27847;SDS011;15212;48.830;8.730;2023-03-01T04:38:50;45.45;;;20.05;;
27847;SDS011;15212;48.830;8.730;2023-03-01T04:41:19;44.35;;;19.65;;
27847;SDS011;15212;48.830;8.730;2023-03-01T04:43:49;43.52;;;19.37;;
27847;SDS011;15212;48.830;8.730;2023-03-01T04:46:19;44.03;;;19.52;;
27847;SDS011;15212;48.830;8.730;2023-03-01T04:48:48;44.55;;;19.05;;
27847;SDS011;15212;48.830;8.730;2023-03-01T04:51:17;49.53;;;19.70;;
27847;SDS011;15212;48.830;8.730;2023-03-01T04:53:45;47.35;;;19.75;;
27847;SDS011;15212;48.830;8.730;2023-03-01T04:56:14;46.35;;;19.90;;
27847;SDS011;15212;48.830;8.730;2023-03-01T04:58:48;43.78;;;20.65;;
27847;SDS011;15212;48.830;8.730;2023-03-01T05:01:19;45.35;;;20.35;;
27847;SDS011;15212;48.830;8.730;2023-03-01T05:06:37;45.08;;;21.07;;
27847;SDS011;15212;48.830;8.730;2023-03-01T05:09:05;43.40;;;20.82;;
27847;SDS011;15212;48.830;8.730;2023-03-01T05:11:34;47.95;;;20.45;;
27847;SDS011;15212;48.830;8.730;2023-03-01T05:14:03;47.38;;;20.43;;
27847;SDS011;15212;48.830;8.730;2023-03-01T05:16:33;44.20;;;20.02;;
27847;SDS011;15212;48.830;8.730;2023-03-01T05:19:03;41.98;;;20.35;;
27847;SDS011;15212;48.830;8.730;2023-03-01T05:21:33;42.10;;;20.20;;
27847;SDS011;15212;48.830;8.730;2023-03-01T05:24:03;46.85;;;20.37;;
27847;SDS011;15212;48.830;8.730;2023-03-01T05:26:34;43.80;;;19.15;;
27847;SDS011;15212;48.830;8.730;2023-03-01T05:29:04;48.23;;;20.95;;
27847;SDS011;15212;48.830;8.730;2023-03-01T05:31:34;48.90;;;20.80;;
27847;SDS011;15212;48.830;8.730;2023-03-01T05:34:03;44.83;;;19.98;;
27847;SDS011;15212;48.830;8.730;2023-03-01T05:36:32;41.90;;;19.95;;
27847;SDS011;15212;48.830;8.730;2023-03-01T05:39:00;51.83;;;22.40;;
27847;SDS011;15212;48.830;8.730;2023-03-01T05:41:29;57.88;;;26.37;;
27847;SDS011;15212;48.830;8.730;2023-03-01T05:43:57;61.98;;;26.62;;
27847;SDS011;15212;48.830;8.730;2023-03-01T05:46:26;59.10;;;26.77;;
27847;SDS011;15212;48.830;8.730;2023-03-01T05:48:55;54.10;;;25.10;;
27847;SDS011;15212;48.830;8.730;2023-03-01T05:51:24;50.43;;;21.80;;
27847;SDS011;15212;48.830;8.730;2023-03-01T05:53:52;44.63;;;20.80;;
27847;SDS011;15212;48.830;8.730;2023-03-01T05:56:20;45.25;;;20.17;;
27847;SDS011;15212;48.830;8.730;2023-03-01T05:58:49;48.25;;;24.02;;
27847;SDS011;15212;48.830;8.730;2023-03-01T06:01:17;51.13;;;23.40;;
27847;SDS011;15212;48.830;8.730;2023-03-01T06:03:46;49.63;;;21.33;;
27847;SDS011;15212;48.830;8.730;2023-03-01T06:06:14;48.85;;;22.48;;
27847;SDS011;15212;48.830;8.730;2023-03-01T06:08:42;50.23;;;21.40;;
27847;SDS011;15212;48.830;8.730;2023-03-01T06:11:11;41.70;;;20.17;;
27847;SDS011;15212;48.830;8.730;2023-03-01T06:13:40;44.40;;;21.00;;
27847;SDS011;15212;48.830;8.730;2023-03-01T06:16:10;48.20;;;21.73;;
27847;SDS011;15212;48.830;8.730;2023-03-01T06:18:39;41.25;;;19.75;;
27847;SDS011;15212;48.830;8.730;2023-03-01T06:21:08;42.40;;;20.15;;
27847;SDS011;15212;48.830;8.730;2023-03-01T06:23:37;43.70;;;20.27;;
27847;SDS011;15212;48.830;8.730;2023-03-01T06:26:06;45.67;;;21.45;;
27847;SDS011;15212;48.830;8.730;2023-03-01T06:28:36;43.05;;;20.32;;
27847;SDS011;15212;48.830;8.730;2023-03-01T06:31:04;48.80;;;19.98;;
27847;SDS011;15212;48.830;8.730;2023-03-01T06:33:34;46.88;;;20.77;;
27847;SDS011;15212;48.830;8.730;2023-03-01T06:36:02;45.92;;;21.73;;
27847;SDS011;15212;48.830;8.730;2023-03-01T06:38:31;46.37;;;20.92;;
27847;SDS011;15212;48.830;8.730;2023-03-01T06:40:59;45.85;;;20.57;;
27847;SDS011;15212;48.830;8.730;2023-03-01T06:43:28;49.23;;;21.68;;
27847;SDS011;15212;48.830;8.730;2023-03-01T06:45:56;42.23;;;19.32;;
27847;SDS011;15212;48.830;8.730;2023-03-01T06:48:25;42.33;;;19.85;;
27847;SDS011;15212;48.830;8.730;2023-03-01T06:50:53;49.95;;;19.37;;
27847;SDS011;15212;48.830;8.730;2023-03-01T06:53:29;48.40;;;20.23;;
27847;SDS011;15212;48.830;8.730;2023-03-01T06:55:58;41.48;;;21.27;;
27847;SDS011;15212;48.830;8.730;2023-03-01T06:58:26;45.67;;;20.92;;
27847;SDS011;15212;48.830;8.730;2023-03-01T07:00:54;45.90;;;20.75;;
27847;SDS011;15212;48.830;8.730;2023-03-01T07:03:23;48.08;;;20.68;;
27847;SDS011;15212;48.830;8.730;2023-03-01T07:05:51;42.80;;;19.85;;
27847;SDS011;15212;48.830;8.730;2023-03-01T07:08:20;48.10;;;20.65;;
27847;SDS011;15212;48.830;8.730;2023-03-01T07:10:48;52.78;;;23.47;;
27847;SDS011;15212;48.830;8.730;2023-03-01T07:13:26;44.60;;;20.48;;
27847;SDS011;15212;48.830;8.730;2023-03-01T07:15:55;49.83;;;19.85;;
27847;SDS011;15212;48.830;8.730;2023-03-01T07:18:25;46.53;;;20.15;;
27847;SDS011;15212;48.830;8.730;2023-03-01T07:20:53;40.75;;;19.67;;
27847;SDS011;15212;48.830;8.730;2023-03-01T07:23:22;50.28;;;21.10;;
27847;SDS011;15212;48.830;8.730;2023-03-01T07:25:51;50.67;;;22.42;;
27847;SDS011;15212;48.830;8.730;2023-03-01T07:28:22;54.23;;;23.75;;
27847;SDS011;15212;48.830;8.730;2023-03-01T07:30:51;46.02;;;21.70;;
27847;SDS011;15212;48.830;8.730;2023-03-01T07:33:19;48.42;;;20.75;;
27847;SDS011;15212;48.830;8.730;2023-03-01T07:35:47;46.13;;;21.05;;
27847;SDS011;15212;48.830;8.730;2023-03-01T07:38:19;44.95;;;20.82;;
27847;SDS011;15212;48.830;8.730;2023-03-01T07:40:47;45.88;;;19.67;;
27847;SDS011;15212;48.830;8.730;2023-03-01T07:43:16;44.13;;;20.25;;
27847;SDS011;15212;48.830;8.730;2023-03-01T07:45:45;51.25;;;21.37;;
27847;SDS011;15212;48.830;8.730;2023-03-01T07:48:13;41.95;;;19.73;;
27847;SDS011;15212;48.830;8.730;2023-03-01T07:50:42;43.10;;;20.30;;
27847;SDS011;15212;48.830;8.730;2023-03-01T07:53:10;47.73;;;21.10;;
27847;SDS011;15212;48.830;8.730;2023-03-01T07:55:38;41.18;;;19.75;;
27847;SDS011;15212;48.830;8.730;2023-03-01T07:58:07;47.80;;;20.32;;
27847;SDS011;15212;48.830;8.730;2023-03-01T08:00:35;43.52;;;19.80;;
27847;SDS011;15212;48.830;8.730;2023-03-01T08:03:04;46.73;;;21.15;;
27847;SDS011;15212;48.830;8.730;2023-03-01T08:05:32;46.20;;;20.62;;
27847;SDS011;15212;48.830;8.730;2023-03-01T08:08:00;47.30;;;20.30;;
27847;SDS011;15212;48.830;8.730;2023-03-01T08:10:29;45.52;;;20.72;;
27847;SDS011;15212;48.830;8.730;2023-03-01T08:12:57;50.67;;;21.60;;
27847;SDS011;15212;48.830;8.730;2023-03-01T08:15:25;50.05;;;20.92;;
27847;SDS011;15212;48.830;8.730;2023-03-01T08:17:54;46.23;;;20.43;;
27847;SDS011;15212;48.830;8.730;2023-03-01T08:20:22;44.73;;;20.75;;
27847;SDS011;15212;48.830;8.730;2023-03-01T08:22:51;50.35;;;21.82;;
27847;SDS011;15212;48.830;8.730;2023-03-01T08:25:19;47.20;;;21.57;;
27847;SDS011;15212;48.830;8.730;2023-03-01T08:27:47;40.58;;;20.02;;
27847;SDS011;15212;48.830;8.730;2023-03-01T08:30:16;47.45;;;20.27;;
27847;SDS011;15212;48.830;8.730;2023-03-01T08:32:44;47.35;;;20.27;;
27847;SDS011;15212;48.830;8.730;2023-03-01T08:35:13;47.83;;;21.17;;
27847;SDS011;15212;48.830;8.730;2023-03-01T08:37:41;46.42;;;20.17;;
27847;SDS011;15212;48.830;8.730;2023-03-01T08:40:10;44.00;;;19.37;;
27847;SDS011;15212;48.830;8.730;2023-03-01T08:42:40;49.93;;;19.90;;
27847;SDS011;15212;48.830;8.730;2023-03-01T08:45:09;41.65;;;19.67;;
27847;SDS011;15212;48.830;8.730;2023-03-01T08:47:40;43.35;;;19.48;;
27847;SDS011;15212;48.830;8.730;2023-03-01T08:50:09;50.63;;;23.55;;
27847;SDS011;15212;48.830;8.730;2023-03-01T08:52:37;49.00;;;22.02;;
27847;SDS011;15212;48.830;8.730;2023-03-01T08:55:06;51.10;;;22.02;;
27847;SDS011;15212;48.830;8.730;2023-03-01T08:57:40;42.43;;;19.80;;
27847;SDS011;15212;48.830;8.730;2023-03-01T09:00:09;50.38;;;22.00;;
27847;SDS011;15212;48.830;8.730;2023-03-01T09:02:40;46.45;;;20.85;;
27847;SDS011;15212;48.830;8.730;2023-03-01T09:05:09;51.33;;;20.92;;
27847;SDS011;15212;48.830;8.730;2023-03-01T09:07:37;43.42;;;21.87;;
27847;SDS011;15212;48.830;8.730;2023-03-01T09:10:05;46.28;;;21.35;;
27847;SDS011;15212;48.830;8.730;2023-03-01T09:12:36;47.95;;;21.00;;
27847;SDS011;15212;48.830;8.730;2023-03-01T09:15:04;47.98;;;20.85;;
27847;SDS011;15212;48.830;8.730;2023-03-01T09:17:33;46.00;;;20.17;;
27847;SDS011;15212;48.830;8.730;2023-03-01T09:20:02;46.55;;;19.77;;
27847;SDS011;15212;48.830;8.730;2023-03-01T09:22:33;45.92;;;20.02;;
27847;SDS011;15212;48.830;8.730;2023-03-01T09:25:01;47.98;;;20.85;;
27847;SDS011;15212;48.830;8.730;2023-03-01T09:27:30;47.70;;;19.92;;
27847;SDS011;15212;48.830;8.730;2023-03-01T09:29:58;41.73;;;20.05;;
27847;SDS011;15212;48.830;8.730;2023-03-01T09:32:26;44.50;;;20.45;;
27847;SDS011;15212;48.830;8.730;2023-03-01T09:34:57;37.33;;;19.73;;
27847;SDS011;15212;48.830;8.730;2023-03-01T09:37:34;42.88;;;20.27;;
27847;SDS011;15212;48.830;8.730;2023-03-01T09:40:04;46.80;;;21.42;;
27847;SDS011;15212;48.830;8.730;2023-03-01T09:42:36;48.13;;;21.10;;
27847;SDS011;15212;48.830;8.730;2023-03-01T09:45:15;46.13;;;20.35;;
27847;SDS011;15212;48.830;8.730;2023-03-01T09:47:42;50.88;;;20.40;;
27847;SDS011;15212;48.830;8.730;2023-03-01T09:50:14;44.67;;;19.90;;
27847;SDS011;15212;48.830;8.730;2023-03-01T09:53:00;39.95;;;19.70;;
27847;SDS011;15212;48.830;8.730;2023-03-01T09:55:37;42.90;;;20.17;;
27847;SDS011;15212;48.830;8.730;2023-03-01T09:58:29;45.58;;;21.07;;
27847;SDS011;15212;48.830;8.730;2023-03-01T10:01:21;42.27;;;19.90;;
27847;SDS011;15212;48.830;8.730;2023-03-01T10:09:39;44.95;;;20.12;;
27847;SDS011;15212;48.830;8.730;2023-03-01T10:12:11;44.30;;;20.52;;
27847;SDS011;15212;48.830;8.730;2023-03-01T10:17:34;41.10;;;20.20;;
27847;SDS011;15212;48.830;8.730;2023-03-01T10:20:17;41.13;;;20.55;;
27847;SDS011;15212;48.830;8.730;2023-03-01T10:22:41;45.63;;;20.32;;
27847;SDS011;15212;48.830;8.730;2023-03-01T10:25:13;44.35;;;20.27;;
27847;SDS011;15212;48.830;8.730;2023-03-01T10:27:52;49.20;;;21.68;;
27847;SDS011;15212;48.830;8.730;2023-03-01T10:30:29;41.33;;;21.15;;
27847;SDS011;15212;48.830;8.730;2023-03-01T10:33:16;42.88;;;19.37;;
27847;SDS011;15212;48.830;8.730;2023-03-01T10:35:49;40.05;;;19.55;;
27847;SDS011;15212;48.830;8.730;2023-03-01T10:38:18;40.95;;;19.87;;
27847;SDS011;15212;48.830;8.730;2023-03-01T10:40:54;43.02;;;19.82;;
27847;SDS011;15212;48.830;8.730;2023-03-01T10:43:25;48.78;;;21.15;;
27847;SDS011;15212;48.830;8.730;2023-03-01T10:46:00;40.85;;;20.00;;
27847;SDS011;15212;48.830;8.730;2023-03-01T10:48:29;44.20;;;19.80;;
27847;SDS011;15212;48.830;8.730;2023-03-01T10:53:35;41.85;;;18.92;;
27847;SDS011;15212;48.830;8.730;2023-03-01T10:56:08;42.62;;;18.07;;
27847;SDS011;15212;48.830;8.730;2023-03-01T11:01:32;41.23;;;19.20;;
27847;SDS011;15212;48.830;8.730;2023-03-01T11:06:38;40.08;;;19.80;;
27847;SDS011;15212;48.830;8.730;2023-03-01T11:09:15;40.90;;;20.50;;
27847;SDS011;15212;48.830;8.730;2023-03-01T11:11:51;41.30;;;18.48;;
27847;SDS011;15212;48.830;8.730;2023-03-01T11:14:23;41.73;;;19.50;;
27847;SDS011;15212;48.830;8.730;2023-03-01T11:17:00;41.00;;;20.35;;
27847;SDS011;15212;48.830;8.730;2023-03-01T11:19:31;47.48;;;21.62;;
27847;SDS011;15212;48.830;8.730;2023-03-01T11:22:13;51.02;;;20.80;;
27847;SDS011;15212;48.830;8.730;2023-03-01T11:24:47;43.10;;;19.60;;
27847;SDS011;15212;48.830;8.730;2023-03-01T11:27:38;40.55;;;18.65;;
27847;SDS011;15212;48.830;8.730;2023-03-01T11:30:15;43.73;;;19.40;;
27847;SDS011;15212;48.830;8.730;2023-03-01T11:45:15;67.65;;;39.75;;
27847;SDS011;15212;48.830;8.730;2023-03-01T11:50:39;39.98;;;19.17;;
27847;SDS011;15212;48.830;8.730;2023-03-01T11:56:25;40.75;;;18.52;;
27847;SDS011;15212;48.830;8.730;2023-03-01T11:59:31;36.73;;;18.50;;
27847;SDS011;15212;48.830;8.730;2023-03-01T12:02:10;41.42;;;19.37;;
27847;SDS011;15212;48.830;8.730;2023-03-01T12:04:56;38.15;;;18.82;;
27847;SDS011;15212;48.830;8.730;2023-03-01T12:10:54;42.25;;;19.40;;
27847;SDS011;15212;48.830;8.730;2023-03-01T12:13:39;40.52;;;19.60;;
27847;SDS011;15212;48.830;8.730;2023-03-01T12:16:47;37.75;;;18.25;;
27847;SDS011;15212;48.830;8.730;2023-03-01T12:32:01;34.08;;;16.57;;
27847;SDS011;15212;48.830;8.730;2023-03-01T12:40:33;41.83;;;18.15;;
27847;SDS011;15212;48.830;8.730;2023-03-01T12:43:17;38.95;;;17.65;;
27847;SDS011;15212;48.830;8.730;2023-03-01T12:46:08;38.13;;;17.40;;
27847;SDS011;15212;48.830;8.730;2023-03-01T12:49:10;44.48;;;17.73;;
27847;SDS011;15212;48.830;8.730;2023-03-01T12:51:51;38.38;;;18.40;;
27847;SDS011;15212;48.830;8.730;2023-03-01T12:54:21;35.38;;;17.80;;
27847;SDS011;15212;48.830;8.730;2023-03-01T12:56:59;43.63;;;18.75;;
27847;SDS011;15212;48.830;8.730;2023-03-01T12:59:33;37.70;;;18.45;;
27847;SDS011;15212;48.830;8.730;2023-03-01T13:02:25;40.25;;;19.10;;
27847;SDS011;15212;48.830;8.730;2023-03-01T13:08:01;36.33;;;17.70;;
27847;SDS011;15212;48.830;8.730;2023-03-01T13:10:55;40.08;;;19.10;;
27847;SDS011;15212;48.830;8.730;2023-03-01T13:13:26;37.08;;;17.75;;
27847;SDS011;15212;48.830;8.730;2023-03-01T13:15:56;37.90;;;17.10;;
27847;SDS011;15212;48.830;8.730;2023-03-01T13:18:27;34.10;;;17.55;;
27847;SDS011;15212;48.830;8.730;2023-03-01T13:20:58;39.25;;;18.42;;
27847;SDS011;15212;48.830;8.730;2023-03-01T13:23:36;35.17;;;18.50;;
27847;SDS011;15212;48.830;8.730;2023-03-01T13:26:09;35.03;;;18.67;;
27847;SDS011;15212;48.830;8.730;2023-03-01T13:33:55;40.92;;;19.07;;
27847;SDS011;15212;48.830;8.730;2023-03-01T13:39:20;45.58;;;19.32;;
27847;SDS011;15212;48.830;8.730;2023-03-01T13:41:53;42.25;;;19.57;;
27847;SDS011;15212;48.830;8.730;2023-03-01T13:47:05;35.30;;;18.87;;
27847;SDS011;15212;48.830;8.730;2023-03-01T13:49:52;37.05;;;18.25;;
27847;SDS011;15212;48.830;8.730;2023-03-01T13:52:40;41.63;;;18.50;;
27847;SDS011;15212;48.830;8.730;2023-03-01T13:57:48;41.98;;;20.82;;
27847;SDS011;15212;48.830;8.730;2023-03-01T14:00:34;36.88;;;18.52;;
27847;SDS011;15212;48.830;8.730;2023-03-01T14:03:17;42.05;;;18.42;;
27847;SDS011;15212;48.830;8.730;2023-03-01T14:06:06;35.13;;;18.87;;
27847;SDS011;15212;48.830;8.730;2023-03-01T14:08:43;40.75;;;19.87;;
27847;SDS011;15212;48.830;8.730;2023-03-01T14:14:04;42.67;;;19.87;;
27847;SDS011;15212;48.830;8.730;2023-03-01T14:19:34;39.83;;;19.25;;
27847;SDS011;15212;48.830;8.730;2023-03-01T14:22:20;38.85;;;18.55;;
27847;SDS011;15212;48.830;8.730;2023-03-01T14:27:35;39.73;;;19.00;;
27847;SDS011;15212;48.830;8.730;2023-03-01T14:30:11;42.08;;;19.07;;
27847;SDS011;15212;48.830;8.730;2023-03-01T14:32:58;35.88;;;18.67;;
27847;SDS011;15212;48.830;8.730;2023-03-01T14:35:26;42.67;;;20.72;;
27847;SDS011;15212;48.830;8.730;2023-03-01T14:37:57;39.08;;;19.90;;
27847;SDS011;15212;48.830;8.730;2023-03-01T14:40:33;38.35;;;19.42;;
27847;SDS011;15212;48.830;8.730;2023-03-01T14:43:08;37.17;;;19.02;;
27847;SDS011;15212;48.830;8.730;2023-03-01T14:45:42;38.65;;;19.07;;
27847;SDS011;15212;48.830;8.730;2023-03-01T14:48:13;38.73;;;19.20;;
27847;SDS011;15212;48.830;8.730;2023-03-01T14:50:43;44.05;;;21.40;;
27847;SDS011;15212;48.830;8.730;2023-03-01T14:53:21;45.67;;;21.90;;
27847;SDS011;15212;48.830;8.730;2023-03-01T14:55:55;40.73;;;19.48;;
27847;SDS011;15212;48.830;8.730;2023-03-01T14:58:28;40.12;;;18.62;;
27847;SDS011;15212;48.830;8.730;2023-03-01T15:01:00;37.55;;;18.67;;
27847;SDS011;15212;48.830;8.730;2023-03-01T15:03:32;38.02;;;18.60;;
27847;SDS011;15212;48.830;8.730;2023-03-01T15:06:19;39.95;;;18.45;;
27847;SDS011;15212;48.830;8.730;2023-03-01T15:08:50;34.60;;;17.92;;
27847;SDS011;15212;48.830;8.730;2023-03-01T15:11:29;43.78;;;20.85;;
27847;SDS011;15212;48.830;8.730;2023-03-01T15:13:59;34.40;;;17.87;;
27847;SDS011;15212;48.830;8.730;2023-03-01T15:16:29;60.38;;;22.60;;
27847;SDS011;15212;48.830;8.730;2023-03-01T15:19:02;58.85;;;22.07;;
27847;SDS011;15212;48.830;8.730;2023-03-01T15:21:37;59.33;;;22.22;;
27847;SDS011;15212;48.830;8.730;2023-03-01T15:24:17;54.93;;;21.10;;
27847;SDS011;15212;48.830;8.730;2023-03-01T15:26:58;67.37;;;24.77;;
27847;SDS011;15212;48.830;8.730;2023-03-01T15:29:32;58.45;;;21.75;;
27847;SDS011;15212;48.830;8.730;2023-03-01T15:32:04;59.27;;;22.05;;
27847;SDS011;15212;48.830;8.730;2023-03-01T15:34:54;39.03;;;19.00;;
27847;SDS011;15212;48.830;8.730;2023-03-01T15:40:20;39.45;;;17.40;;
27847;SDS011;15212;48.830;8.730;2023-03-01T15:43:01;37.80;;;18.62;;
27847;SDS011;15212;48.830;8.730;2023-03-01T15:45:32;44.73;;;19.45;;
27847;SDS011;15212;48.830;8.730;2023-03-01T15:48:14;41.05;;;19.52;;
27847;SDS011;15212;48.830;8.730;2023-03-01T15:50:46;48.95;;;22.82;;
27847;SDS011;15212;48.830;8.730;2023-03-01T15:53:24;44.58;;;21.30;;
27847;SDS011;15212;48.830;8.730;2023-03-01T15:55:55;39.15;;;19.65;;
27847;SDS011;15212;48.830;8.730;2023-03-01T15:58:24;43.20;;;19.15;;
27847;SDS011;15212;48.830;8.730;2023-03-01T16:03:45;40.50;;;18.75;;
27847;SDS011;15212;48.830;8.730;2023-03-01T16:06:13;40.43;;;18.05;;
27847;SDS011;15212;48.830;8.730;2023-03-01T16:08:41;34.75;;;17.48;;
27847;SDS011;15212;48.830;8.730;2023-03-01T16:11:18;43.17;;;19.50;;
27847;SDS011;15212;48.830;8.730;2023-03-01T16:13:46;39.38;;;18.90;;
27847;SDS011;15212;48.830;8.730;2023-03-01T16:16:15;37.40;;;17.75;;
27847;SDS011;15212;48.830;8.730;2023-03-01T16:18:45;41.05;;;18.90;;
27847;SDS011;15212;48.830;8.730;2023-03-01T16:21:15;42.40;;;18.07;;
27847;SDS011;15212;48.830;8.730;2023-03-01T16:23:47;34.58;;;17.62;;
27847;SDS011;15212;48.830;8.730;2023-03-01T16:26:17;38.25;;;17.57;;